createdAt,value
2023-03-25T00:02:01.703Z,86.91
2023-03-25T00:04:35.212Z,85.90
2023-03-25T00:07:02.639Z,86.93
2023-03-25T00:09:31.868Z,87.18
2023-03-25T00:11:58.793Z,87.64
2023-03-25T00:14:25.664Z,85.98
2023-03-25T00:16:53.216Z,86.20
2023-03-25T00:19:21.247Z,86.53
2023-03-25T00:21:54.109Z,88.75
2023-03-25T00:24:20.966Z,87.39
2023-03-25T00:26:48.664Z,89.64
2023-03-25T00:29:16.992Z,88.21
2023-03-25T00:31:44.086Z,88.41
2023-03-25T00:34:14.846Z,88.25
2023-03-25T00:36:43.695Z,88.17
2023-03-25T00:39:13.513Z,88.35
2023-03-25T00:41:43.491Z,88.08
2023-03-25T00:44:17.137Z,88.25
2023-03-25T00:46:47.175Z,88.22
2023-03-25T00:49:14.113Z,88.89
2023-03-25T00:51:52.853Z,89.35
2023-03-25T00:54:22.290Z,90.20
2023-03-25T00:56:52.856Z,89.97
2023-03-25T00:59:19.898Z,89.29
2023-03-25T01:01:46.808Z,88.49
2023-03-25T01:04:13.753Z,90.46
2023-03-25T01:06:44.362Z,90.13
2023-03-25T01:09:15.225Z,88.78
2023-03-25T01:11:46.874Z,90.15
2023-03-25T01:14:21.023Z,89.30
2023-03-25T01:16:48.055Z,88.85
2023-03-25T01:19:16.313Z,88.95
2023-03-25T01:21:45.187Z,88.65
2023-03-25T01:24:14.822Z,88.44
2023-03-25T01:26:46.109Z,88.61
2023-03-25T01:29:17.732Z,89.62
2023-03-25T01:31:47.595Z,89.03
2023-03-25T01:34:17.382Z,88.54
2023-03-25T01:36:46.702Z,88.96
2023-03-25T01:39:18.597Z,88.65
2023-03-25T01:41:51.085Z,89.19
2023-03-25T01:44:24.145Z,89.08
2023-03-25T01:46:56.328Z,89.46
2023-03-25T01:49:30.171Z,88.68
2023-03-25T01:52:05.805Z,89.06
2023-03-25T01:54:42.580Z,89.53
2023-03-25T01:57:18.432Z,89.23
2023-03-25T01:59:46.313Z,87.79
2023-03-25T02:02:17.784Z,87.47
2023-03-25T02:05:00.137Z,87.28
2023-03-25T02:07:42.578Z,87.99
2023-03-25T02:10:12.864Z,87.10
2023-03-25T02:12:40.972Z,86.61
2023-03-25T02:15:11.045Z,87.38
2023-03-25T02:18:02.229Z,86.11
2023-03-25T02:20:54.320Z,87.09
2023-03-25T02:23:43.205Z,86.69
2023-03-25T02:26:50.106Z,87.04
2023-03-25T02:29:54.032Z,87.15
2023-03-25T02:33:30.296Z,89.12
2023-03-25T02:36:41.411Z,88.01
2023-03-25T02:39:36.031Z,88.29
2023-03-25T02:42:35.160Z,87.07
2023-03-25T02:45:49.162Z,86.89
2023-03-25T02:48:27.753Z,87.42
2023-03-25T02:51:00.922Z,86.63
2023-03-25T02:53:34.975Z,87.33
2023-03-25T02:56:10.973Z,88.09
2023-03-25T02:58:40.792Z,87.51
2023-03-25T03:01:10.016Z,88.25
2023-03-25T03:03:39.249Z,87.09
2023-03-25T03:06:08.080Z,87.62
2023-03-25T03:08:54.038Z,87.89
2023-03-25T03:11:30.618Z,87.46
2023-03-25T03:14:07.200Z,88.36
2023-03-25T03:16:42.709Z,87.33
2023-03-25T03:20:02.071Z,89.23
2023-03-25T03:22:56.016Z,90.97
2023-03-25T03:25:47.587Z,91.53
2023-03-25T03:28:24.735Z,91.56
2023-03-25T03:31:11.213Z,92.37
2023-03-25T03:33:57.851Z,92.79
2023-03-25T03:36:31.244Z,91.87
2023-03-25T03:39:23.618Z,92.56
2023-03-25T03:41:59.577Z,92.29
2023-03-25T03:44:33.406Z,91.76
2023-03-25T03:47:11.852Z,92.96
2023-03-25T03:49:43.542Z,92.32
2023-03-25T03:52:45.197Z,93.18
2023-03-25T03:55:19.377Z,93.93
2023-03-25T03:57:53.108Z,93.43
2023-03-25T04:00:29.592Z,92.23
2023-03-25T04:03:08.866Z,91.71
2023-03-25T04:05:40.896Z,91.49
2023-03-25T04:08:29.518Z,91.68
2023-03-25T04:11:29.096Z,90.56
2023-03-25T04:13:59.249Z,91.65
2023-03-25T04:16:26.207Z,92.16
2023-03-25T04:18:55.769Z,92.54
2023-03-25T04:21:25.420Z,93.22
2023-03-25T04:23:54.494Z,93.98
2023-03-25T04:26:21.676Z,93.74
2023-03-25T04:28:51.701Z,92.82
2023-03-25T04:31:21.753Z,91.37
2023-03-25T04:33:51.906Z,91.61
2023-03-25T04:36:20.129Z,91.57
2023-03-25T04:38:47.038Z,92.40
2023-03-25T04:41:15.627Z,92.03
2023-03-25T04:43:45.079Z,93.18
2023-03-25T04:46:17.936Z,92.72
2023-03-25T04:48:45.622Z,93.17
2023-03-25T04:51:13.629Z,93.46
2023-03-25T04:53:42.620Z,93.11
2023-03-25T04:56:16.215Z,93.33
2023-03-25T04:58:46.613Z,93.28
2023-03-25T05:01:30.896Z,92.89
2023-03-25T05:04:06.904Z,91.19
2023-03-25T05:06:38.321Z,92.06
2023-03-25T05:09:13.959Z,91.52
2023-03-25T05:11:41.873Z,91.27
2023-03-25T05:14:10.910Z,92.68
2023-03-25T05:16:40.866Z,93.39
2023-03-25T05:19:08.214Z,93.36
2023-03-25T05:21:43.877Z,92.33
2023-03-25T05:24:15.204Z,92.45
2023-03-25T05:26:42.991Z,92.15
2023-03-25T05:29:14.076Z,92.31
2023-03-25T05:31:46.152Z,92.20
2023-03-25T05:34:14.661Z,92.18
2023-03-25T05:36:41.791Z,93.55
2023-03-25T05:39:11.072Z,94.28
2023-03-25T05:41:45.703Z,94.28
2023-03-25T05:44:18.799Z,94.66
2023-03-25T05:46:45.608Z,96.09
2023-03-25T05:49:12.502Z,95.34
2023-03-25T05:51:41.988Z,96.07
2023-03-25T05:54:12.267Z,95.35
2023-03-25T05:56:40.239Z,95.01
2023-03-25T05:59:08.345Z,95.39
2023-03-25T06:01:37.705Z,97.00
2023-03-25T06:04:05.290Z,97.05
2023-03-25T06:06:34.237Z,97.71
2023-03-25T06:09:02.559Z,97.43
2023-03-25T06:11:37.777Z,98.07
2023-03-25T06:14:05.906Z,97.96
2023-03-25T06:16:33.771Z,98.27
2023-03-25T06:19:01.132Z,98.19
2023-03-25T06:21:32.599Z,98.99
2023-03-25T06:24:02.286Z,98.69
2023-03-25T06:26:32.641Z,100.00
2023-03-25T06:29:02.573Z,99.23
2023-03-25T06:31:34.251Z,97.87
2023-03-25T06:34:01.610Z,97.36
2023-03-25T06:36:31.491Z,97.65
2023-03-25T06:38:58.483Z,95.05
2023-03-25T06:41:28.118Z,96.30
2023-03-25T06:43:57.920Z,97.46
2023-03-25T06:46:24.830Z,97.98
2023-03-25T06:48:51.863Z,98.28
2023-03-25T06:51:18.733Z,96.70
2023-03-25T06:53:47.694Z,96.84
2023-03-25T06:56:14.715Z,95.54
2023-03-25T06:58:41.989Z,95.91
2023-03-25T07:01:09.002Z,95.54
2023-03-25T07:03:37.264Z,94.34
2023-03-25T07:06:06.296Z,91.05
2023-03-25T07:08:34.084Z,86.41
2023-03-25T07:11:09.067Z,87.12
2023-03-25T07:13:37.999Z,88.33
2023-03-25T07:16:08.651Z,89.15
2023-03-25T07:18:40.361Z,88.99
2023-03-25T07:21:09.802Z,88.57
2023-03-25T07:23:36.741Z,89.39
2023-03-25T07:26:13.316Z,90.62
2023-03-25T07:28:40.776Z,90.82
2023-03-25T07:31:17.902Z,91.29
2023-03-25T07:33:44.917Z,90.72
2023-03-25T07:36:14.547Z,88.76
2023-03-25T07:38:41.483Z,88.00
2023-03-25T07:41:14.265Z,85.34
2023-03-25T07:43:43.651Z,86.19
2023-03-25T07:46:10.515Z,84.18
2023-03-25T07:48:37.428Z,83.39
2023-03-25T07:51:04.559Z,82.48
2023-03-25T07:53:34.530Z,82.43
2023-03-25T07:56:03.469Z,83.04
2023-03-25T07:58:35.261Z,82.65
2023-03-25T08:01:02.296Z,82.15
2023-03-25T08:03:31.986Z,82.46
2023-03-25T08:06:02.501Z,81.30
2023-03-25T08:08:30.133Z,80.32
2023-03-25T08:11:01.669Z,81.03
2023-03-25T08:13:31.090Z,81.43
2023-03-25T08:15:58.369Z,79.04
2023-03-25T08:18:25.921Z,78.42
2023-03-25T08:20:53.669Z,78.07
2023-03-25T08:23:23.409Z,77.61
2023-03-25T08:25:51.719Z,75.93
2023-03-25T08:28:24.208Z,75.15
2023-03-25T08:30:55.553Z,73.26
2023-03-25T08:33:33.977Z,74.66
2023-03-25T08:36:03.627Z,74.88
2023-03-25T08:38:35.283Z,76.82
2023-03-25T08:41:05.272Z,76.01
2023-03-25T08:43:37.006Z,75.98
2023-03-25T08:46:04.100Z,77.66
2023-03-25T08:48:33.507Z,77.38
2023-03-25T08:51:03.417Z,76.73
2023-03-25T08:53:33.129Z,74.59
2023-03-25T08:56:00.201Z,70.04
2023-03-25T08:58:27.306Z,61.81
2023-03-25T09:00:56.233Z,61.61
2023-03-25T09:03:26.941Z,61.97
2023-03-25T09:05:56.428Z,64.66
2023-03-25T09:08:26.053Z,65.03
2023-03-25T09:11:00.454Z,66.05
2023-03-25T09:13:27.302Z,69.71
2023-03-25T09:15:54.578Z,70.31
2023-03-25T09:18:21.700Z,70.59
2023-03-25T09:20:48.602Z,71.92
2023-03-25T09:23:16.293Z,63.86
2023-03-25T09:25:43.197Z,60.49
2023-03-25T09:28:10.361Z,53.81
2023-03-25T09:30:39.289Z,55.50
2023-03-25T09:33:06.830Z,57.88
2023-03-25T09:35:34.253Z,61.93
2023-03-25T09:38:01.942Z,65.88
2023-03-25T09:40:29.037Z,67.00
2023-03-25T09:43:42.521Z,67.19
2023-03-25T09:46:11.940Z,69.09
2023-03-25T09:48:45.335Z,68.47
2023-03-25T09:51:22.977Z,74.89
2023-03-25T09:54:16.686Z,82.98
2023-03-25T09:56:46.139Z,85.59
2023-03-25T09:59:25.982Z,86.54
2023-03-25T10:02:28.720Z,87.80
2023-03-25T10:05:23.051Z,89.74
2023-03-25T10:08:13.427Z,86.97
2023-03-25T10:11:04.350Z,88.85
2023-03-25T10:13:48.813Z,87.65
2023-03-25T10:16:37.083Z,88.48
2023-03-25T10:19:18.957Z,89.44
2023-03-25T10:22:28.814Z,88.04
2023-03-25T10:25:06.488Z,88.83
2023-03-25T10:27:33.514Z,89.19
2023-03-25T10:30:11.970Z,91.76
2023-03-25T10:32:47.418Z,92.04
2023-03-25T10:35:26.432Z,91.32
2023-03-25T10:38:02.048Z,86.72
2023-03-25T10:40:44.900Z,76.03
2023-03-25T10:43:31.998Z,68.65
2023-03-25T10:46:13.235Z,61.82
2023-03-25T10:48:43.077Z,63.66
2023-03-25T10:51:13.160Z,66.06
2023-03-25T10:53:41.942Z,62.29
2023-03-25T10:56:41.642Z,57.06
2023-03-25T10:59:56.828Z,58.21
2023-03-25T11:02:28.131Z,58.54
2023-03-25T11:05:03.130Z,55.32
2023-03-25T11:07:42.285Z,52.81
2023-03-25T11:10:28.405Z,52.93
2023-03-25T11:13:03.724Z,54.55
2023-03-25T11:15:37.166Z,55.06
2023-03-25T11:18:15.382Z,54.34
2023-03-25T11:21:02.506Z,56.33
2023-03-25T11:23:42.350Z,58.10
2023-03-25T11:26:20.871Z,53.99
2023-03-25T11:29:15.295Z,57.16
2023-03-25T11:31:46.209Z,60.09
2023-03-25T11:34:13.066Z,63.05
2023-03-25T11:36:54.984Z,66.99
2023-03-25T11:39:40.359Z,68.88
2023-03-25T11:42:35.874Z,70.34
2023-03-25T11:45:14.021Z,73.48
2023-03-25T11:47:42.109Z,75.62
2023-03-25T11:50:23.910Z,75.47
2023-03-25T11:52:59.187Z,76.66
2023-03-25T11:55:51.594Z,78.75
2023-03-25T11:58:28.557Z,82.01
2023-03-25T12:01:08.039Z,86.80
2023-03-25T12:03:39.402Z,85.35
2023-03-25T12:06:11.363Z,86.24
2023-03-25T12:08:58.545Z,85.09
2023-03-25T12:11:36.687Z,84.64
2023-03-25T12:14:18.058Z,84.13
2023-03-25T12:17:02.730Z,81.98
2023-03-25T12:19:59.726Z,82.94
2023-03-25T12:23:06.355Z,82.75
2023-03-25T12:26:11.098Z,80.52
2023-03-25T12:29:02.017Z,76.81
2023-03-25T12:31:50.804Z,70.20
2023-03-25T12:35:16.605Z,63.31
2023-03-25T12:38:27.279Z,61.74
2023-03-25T12:41:50.059Z,57.53
2023-03-25T12:45:13.156Z,48.98
2023-03-25T12:47:43.411Z,41.94
2023-03-25T12:50:22.962Z,41.33
2023-03-25T12:53:04.422Z,40.98
2023-03-25T12:56:14.210Z,46.17
2023-03-25T12:59:03.327Z,57.32
2023-03-25T13:02:03.511Z,61.10
2023-03-25T13:04:36.470Z,63.55
2023-03-25T13:07:10.468Z,66.61
2023-03-25T13:10:13.369Z,71.23
2023-03-25T13:12:54.460Z,74.97
2023-03-25T13:15:48.309Z,74.64
2023-03-25T13:18:48.139Z,80.15
2023-03-25T13:21:30.173Z,77.80
2023-03-25T13:24:07.189Z,79.36
2023-03-25T13:26:36.359Z,79.09
2023-03-25T13:29:06.314Z,82.16
2023-03-25T13:31:37.405Z,83.17
2023-03-25T13:34:14.094Z,81.71
2023-03-25T13:36:57.100Z,82.34
2023-03-25T13:39:48.015Z,83.42
2023-03-25T13:42:52.890Z,83.17
2023-03-25T13:45:23.231Z,84.12
2023-03-25T13:48:01.946Z,84.56
2023-03-25T13:50:33.692Z,85.68
2023-03-25T13:53:15.828Z,85.81
2023-03-25T13:56:13.280Z,85.54
2023-03-25T13:59:04.806Z,84.35
2023-03-25T14:02:09.157Z,84.63
2023-03-25T14:05:06.891Z,83.71
2023-03-25T14:08:07.306Z,82.63
2023-03-25T14:10:58.747Z,84.48
2023-03-25T14:13:39.422Z,85.57
2023-03-25T14:16:20.538Z,86.09
2023-03-25T14:18:53.001Z,85.11
2023-03-25T14:21:59.393Z,86.02
2023-03-25T14:24:37.201Z,86.14
2023-03-25T14:27:44.233Z,87.77
2023-03-25T14:30:22.473Z,89.03
2023-03-25T14:32:51.880Z,88.28
2023-03-25T14:35:34.437Z,88.08
2023-03-25T14:38:09.893Z,90.01
2023-03-25T14:40:50.772Z,88.56
2023-03-25T14:43:48.541Z,87.39
2023-03-25T14:46:21.718Z,84.81
2023-03-25T14:49:30.089Z,83.38
2023-03-25T14:52:00.744Z,81.81
2023-03-25T14:54:33.597Z,79.91
2023-03-25T14:57:10.077Z,80.61
2023-03-25T14:59:43.372Z,81.18
2023-03-25T15:02:25.236Z,74.82
2023-03-25T15:05:06.829Z,68.88
2023-03-25T15:07:45.462Z,66.51
2023-03-25T15:10:32.106Z,64.86
2023-03-25T15:13:21.540Z,61.45
2023-03-25T15:15:50.312Z,62.72
2023-03-25T15:18:35.667Z,64.73
2023-03-25T15:21:16.518Z,66.48
2023-03-25T15:23:47.583Z,64.27
2023-03-25T15:26:40.892Z,64.66
2023-03-25T15:29:47.552Z,67.53
2023-03-25T15:32:23.201Z,71.21
2023-03-25T15:35:13.900Z,71.63
2023-03-25T15:38:08.444Z,74.36
2023-03-25T15:41:19.532Z,74.21
2023-03-25T15:44:27.725Z,75.08
2023-03-25T15:47:29.732Z,75.37
2023-03-25T15:50:24.554Z,75.53
2023-03-25T15:53:41.734Z,76.64
2023-03-25T15:56:16.550Z,76.85
2023-03-25T15:58:55.573Z,76.58
2023-03-25T16:01:31.795Z,74.82
2023-03-25T16:04:21.222Z,77.34
2023-03-25T16:06:53.184Z,78.27
2023-03-25T16:09:29.481Z,77.10
2023-03-25T16:12:03.513Z,76.53
2023-03-25T16:14:33.401Z,76.39
2023-03-25T16:17:07.278Z,76.71
2023-03-25T16:19:46.828Z,77.42
2023-03-25T16:22:34.448Z,78.29
2023-03-25T16:25:14.535Z,78.92
2023-03-25T16:27:50.898Z,79.70
2023-03-25T16:30:39.479Z,79.41
2023-03-25T16:33:14.525Z,75.86
2023-03-25T16:35:46.974Z,76.99
2023-03-25T16:38:22.699Z,77.06
2023-03-25T16:40:50.651Z,76.12
2023-03-25T16:43:24.256Z,77.55
2023-03-25T16:45:53.832Z,79.72
2023-03-25T16:48:34.923Z,79.36
2023-03-25T16:51:16.745Z,81.30
2023-03-25T16:53:44.776Z,82.42
2023-03-25T16:56:14.745Z,81.76
2023-03-25T16:59:08.744Z,84.98
2023-03-25T17:01:43.201Z,87.72
2023-03-25T17:04:18.805Z,85.95
2023-03-25T17:06:52.880Z,86.35
2023-03-25T17:09:34.210Z,89.18
2023-03-25T17:12:08.073Z,91.27
2023-03-25T17:14:40.169Z,92.32
2023-03-25T17:17:41.767Z,92.90
2023-03-25T17:20:19.639Z,91.76
2023-03-25T17:23:25.349Z,91.88
2023-03-25T17:26:09.322Z,92.25
2023-03-25T17:28:43.747Z,93.04
2023-03-25T17:31:29.758Z,94.19
2023-03-25T17:34:21.353Z,95.39
2023-03-25T17:36:52.969Z,95.72
2023-03-25T17:39:24.759Z,98.62
2023-03-25T17:42:01.660Z,98.13
2023-03-25T17:44:46.629Z,96.06
2023-03-25T17:47:20.721Z,95.00
2023-03-25T17:49:52.569Z,93.07
2023-03-25T17:52:25.247Z,93.17
2023-03-25T17:54:52.312Z,92.54
2023-03-25T17:57:22.578Z,90.64
2023-03-25T17:59:52.278Z,89.40
2023-03-25T18:02:23.930Z,89.79
2023-03-25T18:04:51.519Z,90.06
2023-03-25T18:07:22.518Z,90.84
2023-03-25T18:09:49.395Z,92.13
2023-03-25T18:12:16.273Z,91.58
2023-03-25T18:14:45.960Z,90.88
2023-03-25T18:17:17.416Z,89.60
2023-03-25T18:19:44.330Z,89.20
2023-03-25T18:22:19.607Z,91.75
2023-03-25T18:24:49.806Z,91.48
2023-03-25T18:27:21.089Z,91.84
2023-03-25T18:29:55.328Z,92.23
2023-03-25T18:32:24.731Z,92.67
2023-03-25T18:34:52.841Z,92.96
2023-03-25T18:37:19.693Z,94.77
2023-03-25T18:39:50.009Z,95.51
2023-03-25T18:42:18.963Z,98.41
2023-03-25T18:44:49.673Z,97.73
2023-03-25T18:47:20.555Z,97.71
2023-03-25T18:49:50.423Z,96.20
2023-03-25T18:52:17.270Z,98.09
2023-03-25T18:54:44.260Z,97.66
2023-03-25T18:57:15.895Z,97.05
2023-03-25T18:59:46.278Z,95.50
2023-03-25T19:02:13.255Z,96.15
2023-03-25T19:04:54.180Z,96.63
2023-03-25T19:07:32.991Z,95.81
2023-03-25T19:09:59.931Z,97.49
2023-03-25T19:12:26.802Z,96.71
2023-03-25T19:14:53.740Z,96.43
2023-03-25T19:17:23.285Z,95.60
2023-03-25T19:19:52.396Z,95.97
2023-03-25T19:22:19.780Z,96.51
2023-03-25T19:24:48.067Z,95.15
2023-03-25T19:27:14.920Z,95.30
2023-03-25T19:29:41.973Z,95.92
2023-03-25T19:32:08.908Z,95.92
2023-03-25T19:34:47.533Z,95.07
2023-03-25T19:37:15.844Z,95.67
2023-03-25T19:39:49.979Z,95.17
2023-03-25T19:42:16.824Z,96.19
2023-03-25T19:44:44.603Z,93.87
2023-03-25T19:47:12.532Z,94.92
2023-03-25T19:49:40.400Z,96.03
2023-03-25T19:52:07.882Z,95.73
2023-03-25T19:54:37.804Z,96.67
2023-03-25T19:57:09.528Z,96.78
2023-03-25T19:59:37.078Z,95.61
2023-03-25T20:02:04.231Z,95.35
2023-03-25T20:04:31.760Z,95.43
2023-03-25T20:07:01.129Z,95.88
2023-03-25T20:09:30.138Z,96.50
2023-03-25T20:11:57.450Z,96.71
2023-03-25T20:14:24.306Z,96.00
2023-03-25T20:16:55.870Z,96.30
2023-03-25T20:19:22.723Z,95.62
2023-03-25T20:21:49.571Z,96.25
2023-03-25T20:24:16.540Z,97.02
2023-03-25T20:26:43.397Z,97.38
2023-03-25T20:29:13.270Z,97.74
2023-03-25T20:31:40.517Z,97.50
2023-03-25T20:34:12.749Z,97.97
2023-03-25T20:36:42.233Z,95.94
2023-03-25T20:39:14.088Z,95.96
2023-03-25T20:41:43.500Z,96.95
2023-03-25T20:44:15.415Z,96.22
2023-03-25T20:46:46.513Z,96.76
2023-03-25T20:49:15.401Z,96.12
2023-03-25T20:51:43.365Z,95.49
2023-03-25T20:54:16.696Z,94.79
2023-03-25T20:56:51.181Z,95.24
2023-03-25T20:59:19.639Z,95.14
2023-03-25T21:01:54.260Z,95.86
2023-03-25T21:04:22.575Z,95.41
2023-03-25T21:06:55.040Z,95.64
2023-03-25T21:09:21.886Z,95.11
2023-03-25T21:11:51.621Z,94.51
2023-03-25T21:14:18.847Z,95.42
2023-03-25T21:16:46.257Z,94.50
2023-03-25T21:19:15.925Z,97.32
2023-03-25T21:21:47.470Z,95.96
2023-03-25T21:24:16.697Z,96.83
2023-03-25T21:26:46.160Z,96.83
2023-03-25T21:29:13.004Z,96.61
2023-03-25T21:31:45.568Z,96.23
2023-03-25T21:34:15.708Z,96.50
2023-03-25T21:36:43.329Z,96.09
2023-03-25T21:39:13.500Z,95.81
2023-03-25T21:41:40.746Z,95.58
2023-03-25T21:44:07.827Z,96.32
2023-03-25T21:46:36.679Z,95.54
2023-03-25T21:49:06.289Z,96.57
2023-03-25T21:51:35.923Z,96.57
2023-03-25T21:54:06.402Z,95.64
2023-03-25T21:56:34.757Z,95.84
2023-03-25T21:59:03.500Z,95.74
2023-03-25T22:01:30.680Z,97.14
2023-03-25T22:04:02.572Z,97.52
2023-03-25T22:06:35.562Z,97.07
2023-03-25T22:09:09.160Z,96.03
2023-03-25T22:11:39.776Z,96.20
2023-03-25T22:14:07.988Z,96.65
2023-03-25T22:16:35.486Z,95.27
2023-03-25T22:19:05.122Z,95.48
2023-03-25T22:21:36.910Z,95.77
2023-03-25T22:24:06.951Z,96.72
2023-03-25T22:26:35.490Z,96.49
2023-03-25T22:29:06.107Z,95.79
2023-03-25T22:31:39.293Z,94.89
2023-03-25T22:34:11.116Z,94.34
2023-03-25T22:36:49.331Z,94.48
2023-03-25T22:39:20.783Z,95.00
2023-03-25T22:41:47.876Z,93.24
2023-03-25T22:44:16.996Z,93.26
2023-03-25T22:46:46.351Z,94.07
2023-03-25T22:49:14.222Z,94.77
2023-03-25T22:51:41.620Z,94.50
2023-03-25T22:54:11.672Z,95.04
2023-03-25T22:56:38.735Z,94.72
2023-03-25T22:59:07.384Z,95.46
2023-03-25T23:01:37.070Z,94.83
2023-03-25T23:04:04.698Z,95.21
2023-03-25T23:06:32.988Z,94.24
2023-03-25T23:08:59.958Z,94.00
2023-03-25T23:11:29.472Z,93.51
2023-03-25T23:14:07.507Z,94.64
2023-03-25T23:16:35.691Z,94.57
2023-03-25T23:19:05.630Z,95.11
2023-03-25T23:21:33.727Z,94.46
2023-03-25T23:24:05.225Z,93.20
2023-03-25T23:26:38.886Z,94.67
2023-03-25T23:29:11.928Z,94.34
2023-03-25T23:31:42.365Z,95.85
2023-03-25T23:34:13.239Z,96.61
2023-03-25T23:36:40.771Z,95.77
2023-03-25T23:39:15.316Z,95.74
2023-03-25T23:41:42.471Z,95.56
2023-03-25T23:44:13.200Z,95.22
2023-03-25T23:46:43.128Z,95.26
2023-03-25T23:49:11.096Z,96.04
2023-03-25T23:51:42.244Z,96.29
2023-03-25T23:54:12.720Z,96.05
2023-03-25T23:56:49.786Z,96.23
2023-03-25T23:59:16.790Z,96.81
